Time,TemperatureF,DewpointF,PressureIn,WindDirection,WindDirectionDegrees,WindSpeedMPH,WindSpeedGustMPH,Humidity,HourlyPrecipIn,Conditions,Clouds,dailyrainin,SoftwareType,DateUTC
2013-11-14 00:07:00,39.7,30.7,29.84,North,-999,4.8,-999.0,70,-99.99,,,-99.99,Acu-Link.com,2013-11-14 06:07:00,
2013-11-14 00:23:00,39.5,30.9,29.84,North,-999,4.8,-999.0,71,-99.99,,,-99.99,Acu-Link.com,2013-11-14 06:23:00,
2013-11-14 00:38:00,39.1,30.5,29.84,North,-999,3.2,-999.0,71,-99.99,,,-99.99,Acu-Link.com,2013-11-14 06:38:00,
2013-11-14 00:53:00,39.2,30.6,29.83,North,-999,6.4,-999.0,71,-99.99,,,-99.99,Acu-Link.com,2013-11-14 06:53:00,
2013-11-14 01:09:00,38.9,30.7,29.83,North,-999,3.2,-999.0,72,-99.99,,,-99.99,Acu-Link.com,2013-11-14 07:09:00,
2013-11-14 01:24:00,39.3,30.7,29.83,North,-999,6.4,-999.0,71,-99.99,,,-99.99,Acu-Link.com,2013-11-14 07:24:00,
2013-11-14 01:39:00,40.2,30.9,29.82,North,-999,8.0,-999.0,69,-99.99,,,-99.99,Acu-Link.com,2013-11-14 07:39:00,
2013-11-14 01:54:00,39.7,30.7,29.82,North,-999,8.0,-999.0,70,-99.99,,,-99.99,Acu-Link.com,2013-11-14 07:54:00,
2013-11-14 02:09:00,39.5,30.5,29.82,North,-999,11.2,-999.0,70,-99.99,,,-99.99,Acu-Link.com,2013-11-14 08:09:00,
2013-11-14 02:25:00,38.9,30.7,29.82,North,-999,11.2,-999.0,72,-99.99,,,-99.99,Acu-Link.com,2013-11-14 08:25:00,
2013-11-14 02:40:00,38.8,30.6,29.82,North,-999,12.8,-999.0,72,-99.99,,,-99.99,Acu-Link.com,2013-11-14 08:40:00,
2013-11-14 02:55:00,38.2,30.7,29.80,North,-999,8.0,-999.0,74,-99.99,,,-99.99,Acu-Link.com,2013-11-14 08:55:00,
2013-11-14 03:11:00,37.9,30.4,29.81,North,-999,6.4,-999.0,74,-99.99,,,-99.99,Acu-Link.com,2013-11-14 09:11:00,
2013-11-14 03:26:00,38.1,30.2,29.81,North,-999,6.4,-999.0,73,-99.99,,,-99.99,Acu-Link.com,2013-11-14 09:26:00,
2013-11-14 03:41:00,38.0,30.1,29.81,North,-999,8.0,-999.0,73,-99.99,,,-99.99,Acu-Link.com,2013-11-14 09:41:00,
2013-11-14 03:57:00,37.3,30.1,29.81,North,-999,3.2,-999.0,75,-99.99,,,-99.99,Acu-Link.com,2013-11-14 09:57:00,
2013-11-14 04:12:00,37.4,29.9,29.81,North,-999,4.8,-999.0,74,-99.99,,,-99.99,Acu-Link.com,2013-11-14 10:12:00,
2013-11-14 04:27:00,37.1,29.9,29.81,North,-999,4.8,-999.0,75,-99.99,,,-99.99,Acu-Link.com,2013-11-14 10:27:00,
2013-11-14 04:43:00,36.7,29.5,29.80,North,-999,4.8,-999.0,75,-99.99,,,-99.99,Acu-Link.com,2013-11-14 10:43:00,
2013-11-14 04:58:00,36.7,29.5,29.80,North,-999,8.0,-999.0,75,-99.99,,,-99.99,Acu-Link.com,2013-11-14 10:58:00,
2013-11-14 05:14:00,36.1,29.3,29.80,North,-999,6.4,-999.0,76,-99.99,,,-99.99,Acu-Link.com,2013-11-14 11:14:00,
2013-11-14 05:29:00,35.7,28.9,29.80,North,-999,1.6,-999.0,76,-99.99,,,-99.99,Acu-Link.com,2013-11-14 11:29:00,
2013-11-14 05:44:00,35.0,28.8,29.80,North,-999,1.6,-999.0,78,-99.99,,,-99.99,Acu-Link.com,2013-11-14 11:44:00,
2013-11-14 06:00:00,35.3,28.8,29.81,North,-999,3.2,-999.0,77,-99.99,,,-99.99,Acu-Link.com,2013-11-14 12:00:00,
2013-11-14 06:15:00,35.1,28.6,29.80,North,-999,3.2,-999.0,77,-99.99,,,-99.99,Acu-Link.com,2013-11-14 12:15:00,
2013-11-14 06:30:00,34.9,28.8,29.80,North,-999,3.2,-999.0,78,-99.99,,,-99.99,Acu-Link.com,2013-11-14 12:30:00,
2013-11-14 06:46:00,34.8,28.3,29.81,North,-999,0.0,-999.0,77,-99.99,,,-99.99,Acu-Link.com,2013-11-14 12:46:00,
2013-11-14 07:01:00,33.6,27.8,29.80,North,-999,0.0,-999.0,79,-99.99,,,-99.99,Acu-Link.com,2013-11-14 13:01:00,
2013-11-14 07:16:00,32.7,27.5,29.81,North,-999,0.0,-999.0,81,-99.99,,,-99.99,Acu-Link.com,2013-11-14 13:16:00,
2013-11-14 07:32:00,32.9,28.0,29.81,North,-999,1.6,-999.0,82,-99.99,,,-99.99,Acu-Link.com,2013-11-14 13:32:00,
2013-11-14 07:47:00,33.6,28.4,29.82,North,-999,0.0,-999.0,81,-99.99,,,-99.99,Acu-Link.com,2013-11-14 13:47:00,
2013-11-14 08:03:00,35.4,28.9,29.82,North,-999,1.6,-999.0,77,-99.99,,,-99.99,Acu-Link.com,2013-11-14 14:03:00,
2013-11-14 08:18:00,37.2,29.4,29.83,North,-999,4.8,-999.0,73,-99.99,,,-99.99,Acu-Link.com,2013-11-14 14:18:00,
2013-11-14 08:33:00,40.6,30.1,29.83,North,-999,3.2,-999.0,66,-99.99,,,-99.99,Acu-Link.com,2013-11-14 14:33:00,
2013-11-14 08:48:00,42.2,30.1,29.83,North,-999,6.4,-999.0,62,-99.99,,,-99.99,Acu-Link.com,2013-11-14 14:48:00,
2013-11-14 09:04:00,41.7,30.0,29.83,North,-999,1.6,-999.0,63,-99.99,,,-99.99,Acu-Link.com,2013-11-14 15:04:00,
2013-11-14 09:19:00,42.0,29.9,29.83,North,-999,4.8,-999.0,62,-99.99,,,-99.99,Acu-Link.com,2013-11-14 15:19:00,
2013-11-14 09:34:00,43.5,31.0,29.83,North,-999,1.6,-999.0,61,-99.99,,,-99.99,Acu-Link.com,2013-11-14 15:34:00,
2013-11-14 09:49:00,44.2,32.0,29.83,North,-999,4.8,-999.0,62,-99.99,,,-99.99,Acu-Link.com,2013-11-14 15:49:00,
2013-11-14 10:04:00,45.1,32.5,29.82,North,-999,3.2,-999.0,61,-99.99,,,-99.99,Acu-Link.com,2013-11-14 16:04:00,
2013-11-14 10:20:00,46.9,33.8,29.82,North,-999,3.2,-999.0,60,-99.99,,,-99.99,Acu-Link.com,2013-11-14 16:20:00,
2013-11-14 10:35:00,48.6,34.9,29.82,North,-999,0.0,-999.0,59,-99.99,,,-99.99,Acu-Link.com,2013-11-14 16:35:00,
2013-11-14 10:50:00,49.3,35.2,29.81,North,-999,8.0,-999.0,58,-99.99,,,-99.99,Acu-Link.com,2013-11-14 16:50:00,
2013-11-14 11:06:00,49.4,36.1,29.82,North,-999,6.4,-999.0,60,-99.99,,,-99.99,Acu-Link.com,2013-11-14 17:06:00,
2013-11-14 11:21:00,50.8,37.4,29.81,North,-999,0.0,-999.0,60,-99.99,,,-99.99,Acu-Link.com,2013-11-14 17:21:00,
2013-11-14 11:36:00,52.6,38.7,29.81,North,-999,0.0,-999.0,59,-99.99,,,-99.99,Acu-Link.com,2013-11-14 17:36:00,
2013-11-14 11:52:00,52.8,39.3,29.80,North,-999,0.0,-999.0,60,-99.99,,,-99.99,Acu-Link.com,2013-11-14 17:52:00,
2013-11-14 12:07:00,53.2,39.7,29.79,North,-999,0.0,-999.0,60,-99.99,,,-99.99,Acu-Link.com,2013-11-14 18:07:00,
2013-11-14 12:22:00,53.7,40.2,29.79,North,-999,0.0,-999.0,60,-99.99,,,-99.99,Acu-Link.com,2013-11-14 18:22:00,
2013-11-14 12:38:00,54.4,40.4,29.77,North,-999,0.0,-999.0,59,-99.99,,,-99.99,Acu-Link.com,2013-11-14 18:38:00,
2013-11-14 12:53:00,54.2,40.2,29.77,North,-999,0.0,-999.0,59,-99.99,,,-99.99,Acu-Link.com,2013-11-14 18:53:00,
2013-11-14 13:08:00,56.6,40.1,29.77,North,-999,0.0,-999.0,54,-99.99,,,-99.99,Acu-Link.com,2013-11-14 19:08:00,
2013-11-14 13:23:00,57.6,41.1,29.76,North,-999,4.8,-999.0,54,-99.99,,,-99.99,Acu-Link.com,2013-11-14 19:23:00,
2013-11-14 13:38:00,55.9,40.9,29.76,North,-999,0.0,-999.0,57,-99.99,,,-99.99,Acu-Link.com,2013-11-14 19:38:00,
2013-11-14 13:54:00,55.2,41.1,29.75,North,-999,0.0,-999.0,59,-99.99,,,-99.99,Acu-Link.com,2013-11-14 19:54:00,
2013-11-14 14:09:00,55.7,41.2,29.75,North,-999,0.0,-999.0,58,-99.99,,,-99.99,Acu-Link.com,2013-11-14 20:09:00,
2013-11-14 14:24:00,57.0,41.5,29.75,North,-999,0.0,-999.0,56,-99.99,,,-99.99,Acu-Link.com,2013-11-14 20:24:00,
2013-11-14 14:39:00,56.6,41.5,29.76,North,-999,0.0,-999.0,57,-99.99,,,-99.99,Acu-Link.com,2013-11-14 20:39:00,
2013-11-14 14:54:00,55.3,41.7,29.76,North,-999,0.0,-999.0,60,-99.99,,,-99.99,Acu-Link.com,2013-11-14 20:54:00,
2013-11-14 15:10:00,55.3,41.2,29.76,North,-999,3.2,-999.0,59,-99.99,,,-99.99,Acu-Link.com,2013-11-14 21:10:00,
2013-11-14 15:25:00,54.2,41.0,29.76,North,-999,3.2,-999.0,61,-99.99,,,-99.99,Acu-Link.com,2013-11-14 21:25:00,
2013-11-14 15:41:00,53.3,41.4,29.76,North,-999,0.0,-999.0,64,-99.99,,,-99.99,Acu-Link.com,2013-11-14 21:41:00,
2013-11-14 15:56:00,53.9,42.0,29.76,North,-999,0.0,-999.0,64,-99.99,,,-99.99,Acu-Link.com,2013-11-14 21:56:00,
2013-11-14 16:11:00,52.9,41.1,29.76,North,-999,0.0,-999.0,64,-99.99,,,-99.99,Acu-Link.com,2013-11-14 22:11:00,
2013-11-14 16:27:00,51.7,41.1,29.76,North,-999,0.0,-999.0,67,-99.99,,,-99.99,Acu-Link.com,2013-11-14 22:27:00,
2013-11-14 16:42:00,51.2,41.0,29.76,North,-999,0.0,-999.0,68,-99.99,,,-99.99,Acu-Link.com,2013-11-14 22:42:00,
2013-11-14 16:57:00,50.1,40.0,29.76,North,-999,0.0,-999.0,68,-99.99,,,-99.99,Acu-Link.com,2013-11-14 22:57:00,
2013-11-14 17:13:00,44.0,36.6,29.76,North,-999,0.0,-999.0,75,-99.99,,,-99.99,Acu-Link.com,2013-11-14 23:13:00,
2013-11-14 17:28:00,40.0,34.6,29.77,North,-999,0.0,-999.0,81,-99.99,,,-99.99,Acu-Link.com,2013-11-14 23:28:00,
2013-11-14 17:43:00,37.0,33.2,29.77,North,-999,0.0,-999.0,86,-99.99,,,-99.99,Acu-Link.com,2013-11-14 23:43:00,
2013-11-14 17:59:00,35.7,33.3,29.78,North,-999,0.0,-999.0,91,-99.99,,,-99.99,Acu-Link.com,2013-11-14 23:59:00,
2013-11-14 18:14:00,33.4,31.1,29.77,North,-999,0.0,-999.0,91,-99.99,,,-99.99,Acu-Link.com,2013-11-15 00:14:00,
2013-11-14 18:29:00,32.5,31.0,29.78,North,-999,0.0,-999.0,94,-99.99,,,-99.99,Acu-Link.com,2013-11-15 00:29:00,
2013-11-14 18:45:00,31.4,30.4,29.77,North,-999,0.0,-999.0,96,-99.99,,,-99.99,Acu-Link.com,2013-11-15 00:45:00,
2013-11-14 19:00:00,30.6,29.9,29.77,North,-999,0.0,-999.0,97,-99.99,,,-99.99,Acu-Link.com,2013-11-15 01:00:00,
2013-11-14 19:15:00,30.3,30.1,29.77,North,-999,0.0,-999.0,99,-99.99,,,-99.99,Acu-Link.com,2013-11-15 01:15:00,
2013-11-14 19:31:00,29.3,29.1,29.77,North,-999,0.0,-999.0,99,-99.99,,,-99.99,Acu-Link.com,2013-11-15 01:31:00,
2013-11-14 19:46:00,29.1,28.9,29.77,North,-999,0.0,-999.0,99,-99.99,,,-99.99,Acu-Link.com,2013-11-15 01:46:00,
2013-11-14 20:01:00,29.8,29.6,29.77,North,-999,0.0,-999.0,99,-99.99,,,-99.99,Acu-Link.com,2013-11-15 02:01:00,
2013-11-14 20:16:00,28.6,28.4,29.77,North,-999,0.0,-999.0,99,-99.99,,,-99.99,Acu-Link.com,2013-11-15 02:16:00,
2013-11-14 20:32:00,28.1,27.9,29.77,North,-999,0.0,-999.0,99,-99.99,,,-99.99,Acu-Link.com,2013-11-15 02:32:00,
2013-11-14 20:48:00,27.9,27.7,29.78,North,-999,0.0,-999.0,99,-99.99,,,-99.99,Acu-Link.com,2013-11-15 02:48:00,
2013-11-14 21:03:00,28.9,28.7,29.78,North,-999,0.0,-999.0,99,-99.99,,,-99.99,Acu-Link.com,2013-11-15 03:03:00,
2013-11-14 21:18:00,34.3,34.0,29.78,North,-999,0.0,-999.0,99,-99.99,,,-99.99,Acu-Link.com,2013-11-15 03:18:00,
2013-11-14 21:34:00,35.4,35.1,29.78,North,-999,0.0,-999.0,99,-99.99,,,-99.99,Acu-Link.com,2013-11-15 03:34:00,
2013-11-14 21:49:00,35.7,35.4,29.78,North,-999,0.0,-999.0,99,-99.99,,,-99.99,Acu-Link.com,2013-11-15 03:49:00,
2013-11-14 22:04:00,35.6,35.3,29.78,North,-999,0.0,-999.0,99,-99.99,,,-99.99,Acu-Link.com,2013-11-15 04:04:00,
2013-11-14 22:19:00,35.2,34.9,29.77,North,-999,0.0,-999.0,99,-99.99,,,-99.99,Acu-Link.com,2013-11-15 04:19:00,
2013-11-14 22:35:00,35.2,34.9,29.78,North,-999,0.0,-999.0,99,-99.99,,,-99.99,Acu-Link.com,2013-11-15 04:35:00,
2013-11-14 22:50:00,35.2,34.7,29.77,North,-999,0.0,-999.0,98,-99.99,,,-99.99,Acu-Link.com,2013-11-15 04:50:00,
2013-11-14 23:05:00,34.4,34.1,29.77,North,-999,0.0,-999.0,99,-99.99,,,-99.99,Acu-Link.com,2013-11-15 05:05:00,
2013-11-14 23:21:00,34.3,34.0,29.77,North,-999,0.0,-999.0,99,-99.99,,,-99.99,Acu-Link.com,2013-11-15 05:21:00,
2013-11-14 23:36:00,33.7,33.4,29.77,North,-999,0.0,-999.0,99,-99.99,,,-99.99,Acu-Link.com,2013-11-15 05:36:00,
2013-11-14 23:52:00,33.5,33.2,29.77,North,-999,0.0,-999.0,99,-99.99,,,-99.99,Acu-Link.com,2013-11-15 05:52:00,